createdAt,value
2022-08-09T00:00:00.595Z,99.90
2022-08-09T00:02:33.138Z,99.90
2022-08-09T00:06:12.062Z,99.90
2022-08-09T00:08:48.220Z,99.90
2022-08-09T00:11:24.775Z,99.90
2022-08-09T00:13:52.037Z,99.90
2022-08-09T00:16:26.368Z,99.90
2022-08-09T00:19:03.974Z,99.90
2022-08-09T00:21:38.176Z,99.90
2022-08-09T00:24:21.685Z,99.90
2022-08-09T00:26:50.663Z,99.90
2022-08-09T00:29:39.418Z,99.90
2022-08-09T00:32:44.853Z,99.90
2022-08-09T00:35:13.188Z,99.90
2022-08-09T00:37:39.812Z,99.90
2022-08-09T00:40:16.749Z,99.90
2022-08-09T00:44:13.488Z,99.90
2022-08-09T00:46:56.401Z,99.90
2022-08-09T00:49:24.323Z,99.90
2022-08-09T00:51:56.443Z,99.90
2022-08-09T00:54:35.389Z,99.90
2022-08-09T00:57:10.248Z,99.90
2022-08-09T00:59:41.208Z,99.90
2022-08-09T01:02:20.609Z,99.90
2022-08-09T01:05:50.728Z,99.90
2022-08-09T01:08:29.230Z,99.90
2022-08-09T01:12:24.470Z,99.90
2022-08-09T01:15:53.199Z,99.90
2022-08-09T01:18:29.822Z,99.90
2022-08-09T01:21:44.712Z,99.90
2022-08-09T01:24:32.938Z,99.90
2022-08-09T01:27:11.263Z,99.90
2022-08-09T01:29:56.106Z,99.90
2022-08-09T01:32:32.675Z,99.90
2022-08-09T01:35:29.148Z,99.90
2022-08-09T01:38:15.471Z,99.90
2022-08-09T01:41:32.090Z,99.90
2022-08-09T01:44:02.561Z,99.90
2022-08-09T01:46:31.844Z,99.90
2022-08-09T01:49:10.566Z,99.90
2022-08-09T01:51:57.963Z,99.90
2022-08-09T01:54:37.373Z,99.90
2022-08-09T01:57:14.803Z,99.90
2022-08-09T01:59:51.901Z,99.90
2022-08-09T02:02:31.086Z,99.90
2022-08-09T02:05:05.387Z,99.90
2022-08-09T02:08:38.807Z,99.90
2022-08-09T02:11:24.732Z,99.90
2022-08-09T02:14:15.911Z,99.90
2022-08-09T02:17:14.471Z,99.90
2022-08-09T02:19:56.138Z,99.90
2022-08-09T02:22:46.435Z,99.90
2022-08-09T02:25:42.544Z,99.90
2022-08-09T02:28:34.391Z,99.90
2022-08-09T02:31:11.269Z,99.90
2022-08-09T02:34:07.330Z,99.90
2022-08-09T02:36:42.672Z,99.90
2022-08-09T02:39:19.746Z,99.90
2022-08-09T02:42:05.766Z,99.90
2022-08-09T02:44:37.547Z,99.90
2022-08-09T02:47:07.473Z,99.90
2022-08-09T02:50:01.321Z,99.90
2022-08-09T02:52:38.359Z,99.90
2022-08-09T02:55:20.821Z,99.90
2022-08-09T02:58:00.201Z,99.90
2022-08-09T03:00:59.817Z,99.90
2022-08-09T03:04:12.894Z,99.90
2022-08-09T03:06:41.295Z,99.90
2022-08-09T03:09:07.710Z,99.90
2022-08-09T03:12:06.183Z,99.90
2022-08-09T03:14:39.523Z,99.90
2022-08-09T03:17:07.739Z,99.90
2022-08-09T03:19:57.966Z,99.90
2022-08-09T03:22:30.409Z,99.90
2022-08-09T03:25:16.183Z,99.90
2022-08-09T03:27:55.199Z,99.90
2022-08-09T03:30:30.070Z,99.90
2022-08-09T03:33:17.428Z,99.90
2022-08-09T03:36:13.381Z,99.90
2022-08-09T03:38:43.243Z,99.90
2022-08-09T03:41:15.543Z,99.90
2022-08-09T03:44:02.981Z,99.90
2022-08-09T03:46:36.771Z,99.90
2022-08-09T03:49:08.852Z,99.90
2022-08-09T03:51:55.622Z,99.90
2022-08-09T03:54:29.274Z,99.90
2022-08-09T03:56:57.966Z,99.90
2022-08-09T03:59:27.310Z,99.90
2022-08-09T04:02:09.163Z,99.90
2022-08-09T04:04:38.869Z,99.90
2022-08-09T04:07:05.735Z,99.90
2022-08-09T04:09:47.788Z,99.90
2022-08-09T04:12:45.815Z,99.90
2022-08-09T04:15:29.654Z,99.90
2022-08-09T04:18:44.100Z,99.90
2022-08-09T04:21:12.294Z,99.90
2022-08-09T04:23:38.809Z,99.90
2022-08-09T04:26:06.137Z,99.90
2022-08-09T04:28:36.432Z,99.90
2022-08-09T04:31:12.919Z,99.90
2022-08-09T04:33:47.656Z,99.90
2022-08-09T04:36:24.509Z,99.90
2022-08-09T04:38:51.176Z,99.90
2022-08-09T04:41:18.789Z,99.90
2022-08-09T04:43:53.760Z,99.90
2022-08-09T04:46:38.072Z,99.90
2022-08-09T04:49:40.815Z,99.90
2022-08-09T04:52:26.502Z,99.90
2022-08-09T04:55:00.394Z,99.90
2022-08-09T04:57:26.880Z,99.90
2022-08-09T05:00:21.698Z,99.90
2022-08-09T05:02:52.546Z,99.90
2022-08-09T05:05:31.382Z,99.90
2022-08-09T05:07:59.004Z,99.90
2022-08-09T05:10:25.736Z,99.90
2022-08-09T05:12:52.443Z,99.90
2022-08-09T05:15:38.707Z,99.90
2022-08-09T05:18:37.642Z,99.90
2022-08-09T05:21:09.982Z,99.90
2022-08-09T05:23:56.612Z,99.90
2022-08-09T05:26:36.269Z,99.90
2022-08-09T05:29:04.141Z,99.90
2022-08-09T05:31:44.207Z,99.90
2022-08-09T05:34:17.086Z,99.90
2022-08-09T05:36:44.318Z,99.90
2022-08-09T05:39:28.245Z,99.90
2022-08-09T05:41:55.897Z,99.90
2022-08-09T05:44:29.088Z,99.90
2022-08-09T05:46:59.850Z,99.90
2022-08-09T05:50:25.039Z,99.90
2022-08-09T05:53:02.116Z,99.90
2022-08-09T05:55:28.564Z,99.90
2022-08-09T05:57:58.417Z,99.90
2022-08-09T06:00:29.559Z,99.90
2022-08-09T06:03:00.725Z,99.90
2022-08-09T06:05:50.278Z,99.90
2022-08-09T06:08:25.108Z,99.90
2022-08-09T06:10:54.909Z,99.90
2022-08-09T06:13:21.523Z,99.90
2022-08-09T06:15:52.668Z,99.90
2022-08-09T06:18:24.008Z,99.90
2022-08-09T06:20:57.903Z,99.90
2022-08-09T06:23:57.994Z,99.90
2022-08-09T06:26:28.145Z,99.90
2022-08-09T06:29:00.004Z,99.90
2022-08-09T06:31:40.633Z,99.90
2022-08-09T06:35:02.896Z,99.90
2022-08-09T06:37:33.392Z,99.90
2022-08-09T06:40:23.897Z,99.90
2022-08-09T06:42:50.689Z,99.90
2022-08-09T06:46:05.325Z,99.90
2022-08-09T06:48:37.090Z,99.90
2022-08-09T06:51:10.161Z,99.90
2022-08-09T06:53:38.245Z,99.90
2022-08-09T06:56:06.572Z,99.90
2022-08-09T07:00:46.672Z,99.90
2022-08-09T07:03:28.041Z,99.90
2022-08-09T07:06:02.952Z,99.90
2022-08-09T07:08:30.783Z,99.90
2022-08-09T07:10:57.038Z,99.90
2022-08-09T07:13:28.056Z,99.90
2022-08-09T07:16:39.825Z,99.90
2022-08-09T07:19:15.828Z,99.90
2022-08-09T07:21:57.846Z,99.90
2022-08-09T07:24:32.664Z,99.90
2022-08-09T07:27:10.994Z,99.90
2022-08-09T07:29:57.007Z,99.90
2022-08-09T07:32:32.474Z,99.90
2022-08-09T07:35:02.760Z,99.90
2022-08-09T07:37:44.218Z,99.90
2022-08-09T07:40:20.231Z,99.90
2022-08-09T07:42:54.428Z,99.90
2022-08-09T07:45:39.388Z,99.90
2022-08-09T07:48:08.270Z,99.90
2022-08-09T07:51:09.987Z,99.90
2022-08-09T07:54:31.207Z,99.90
2022-08-09T07:56:58.436Z,99.90
2022-08-09T07:59:45.874Z,99.90
2022-08-09T08:02:22.662Z,99.90
2022-08-09T08:04:49.402Z,99.90
2022-08-09T08:08:06.208Z,99.90
2022-08-09T08:12:12.144Z,99.90
2022-08-09T08:14:53.932Z,99.90
2022-08-09T08:17:35.127Z,99.90
2022-08-09T08:20:27.296Z,99.90
2022-08-09T08:23:01.279Z,99.90
2022-08-09T08:25:44.201Z,99.90
2022-08-09T08:28:14.369Z,99.90
2022-08-09T08:30:42.315Z,99.90
2022-08-09T08:33:11.770Z,99.90
2022-08-09T08:35:58.617Z,99.90
2022-08-09T08:38:28.067Z,99.90
2022-08-09T08:40:55.519Z,99.90
2022-08-09T08:43:23.265Z,99.90
2022-08-09T08:45:53.422Z,99.90
2022-08-09T08:48:31.178Z,99.90
2022-08-09T08:50:57.922Z,99.90
2022-08-09T08:53:25.202Z,99.90
2022-08-09T08:56:04.520Z,99.90
2022-08-09T08:58:31.701Z,99.90
2022-08-09T09:00:59.400Z,99.90
2022-08-09T09:03:37.538Z,99.90
2022-08-09T09:06:06.696Z,99.90
2022-08-09T09:08:38.103Z,99.90
2022-08-09T09:11:07.800Z,99.90
2022-08-09T09:13:50.250Z,99.90
2022-08-09T09:16:30.721Z,99.90
2022-08-09T09:22:28.624Z,99.90
2022-08-09T09:26:00.540Z,99.90
2022-08-09T09:29:02.803Z,99.90
2022-08-09T09:32:06.616Z,99.90
2022-08-09T09:34:44.732Z,99.90
2022-08-09T09:37:16.472Z,99.90
2022-08-09T09:39:55.475Z,99.90
2022-08-09T09:42:25.575Z,99.90
2022-08-09T09:44:59.757Z,99.90
2022-08-09T09:47:28.525Z,99.90
2022-08-09T09:50:15.446Z,99.90
2022-08-09T09:52:54.001Z,99.90
2022-08-09T09:55:31.897Z,99.90
2022-08-09T09:58:17.318Z,99.90
2022-08-09T10:00:54.373Z,99.90
2022-08-09T10:03:56.407Z,99.90
2022-08-09T10:06:32.515Z,99.90
2022-08-09T10:09:02.935Z,98.60
2022-08-09T10:12:04.466Z,99.40
2022-08-09T10:14:47.965Z,99.70
2022-08-09T10:17:24.320Z,95.70
2022-08-09T10:20:27.080Z,81.20
2022-08-09T10:23:09.777Z,77.70
2022-08-09T10:26:07.218Z,86.80
2022-08-09T10:28:39.859Z,83.60
2022-08-09T10:34:09.823Z,85.20
2022-08-09T10:36:49.214Z,79.10
2022-08-09T10:39:19.500Z,82.50
2022-08-09T10:41:47.629Z,81.90
2022-08-09T10:44:21.974Z,76.60
2022-08-09T10:50:14.875Z,72.60
2022-08-09T10:54:05.076Z,72.60
2022-08-09T10:56:37.147Z,72.60
2022-08-09T10:59:55.787Z,62.20
2022-08-09T11:03:17.995Z,64.80
2022-08-09T11:06:22.861Z,66.70
2022-08-09T11:09:15.358Z,67.40
2022-08-09T11:13:51.380Z,67.10
2022-08-09T11:16:37.792Z,64.80
2022-08-09T11:19:09.807Z,65.10
2022-08-09T11:25:18.302Z,59.20
2022-08-09T11:28:09.304Z,62.00
2022-08-09T11:30:57.811Z,58.80
2022-08-09T11:33:51.208Z,56.00
2022-08-09T11:36:35.527Z,56.90
2022-08-09T11:39:05.553Z,57.20
2022-08-09T11:41:37.557Z,57.10
2022-08-09T11:44:05.252Z,55.30
2022-08-09T11:46:58.467Z,57.00
2022-08-09T11:50:53.142Z,54.00
2022-08-09T11:54:01.832Z,57.00
2022-08-09T11:56:34.315Z,56.40
2022-08-09T11:59:12.443Z,55.90
2022-08-09T12:02:16.155Z,55.10
2022-08-09T12:04:45.761Z,54.60
2022-08-09T12:07:14.294Z,54.60
2022-08-09T12:09:50.330Z,54.30
2022-08-09T12:12:29.453Z,52.20
2022-08-09T12:15:07.715Z,50.30
2022-08-09T12:17:43.677Z,49.30
2022-08-09T12:20:22.219Z,52.70
2022-08-09T12:22:56.179Z,53.90
2022-08-09T12:25:36.157Z,57.50
2022-08-09T12:28:58.338Z,48.20
2022-08-09T12:31:59.406Z,53.00
2022-08-09T12:34:48.889Z,52.10
2022-08-09T12:37:23.699Z,53.60
2022-08-09T12:40:01.289Z,54.70
2022-08-09T12:42:31.558Z,50.30
2022-08-09T12:44:59.415Z,52.00
2022-08-09T12:47:27.728Z,49.00
2022-08-09T12:50:19.866Z,51.40
2022-08-09T12:53:08.459Z,51.00
2022-08-09T12:56:15.441Z,51.30
2022-08-09T12:59:16.386Z,50.90
2022-08-09T13:02:00.909Z,52.00
2022-08-09T13:04:37.664Z,51.40
2022-08-09T13:07:19.858Z,55.00
2022-08-09T13:10:01.925Z,56.00
2022-08-09T13:12:30.861Z,57.60
2022-08-09T13:15:07.183Z,57.00
2022-08-09T13:18:02.841Z,59.50
2022-08-09T13:20:37.363Z,59.70
2022-08-09T13:24:42.617Z,61.70
2022-08-09T13:27:26.569Z,55.70
2022-08-09T13:30:50.372Z,55.80
2022-08-09T13:34:40.353Z,59.00
2022-08-09T13:37:08.054Z,58.40
2022-08-09T13:41:56.661Z,59.70
2022-08-09T13:44:26.487Z,65.70
2022-08-09T13:47:27.028Z,66.50
2022-08-09T13:50:18.237Z,66.70
2022-08-09T13:52:57.178Z,61.80
2022-08-09T13:55:29.001Z,62.00
2022-08-09T13:57:58.399Z,65.30
2022-08-09T14:00:29.470Z,65.70
2022-08-09T14:03:03.125Z,60.80
2022-08-09T14:05:59.218Z,62.30
2022-08-09T14:08:30.174Z,60.50
2022-08-09T14:10:59.429Z,68.80
2022-08-09T14:14:16.199Z,67.90
2022-08-09T14:16:53.800Z,66.50
2022-08-09T14:19:21.958Z,61.70
2022-08-09T14:21:50.358Z,60.90
2022-08-09T14:24:18.514Z,65.40
2022-08-09T14:26:51.224Z,67.80
2022-08-09T14:30:18.682Z,68.70
2022-08-09T14:33:08.276Z,65.10
2022-08-09T14:35:52.052Z,66.10
2022-08-09T14:38:19.502Z,67.50
2022-08-09T14:41:04.149Z,65.50
2022-08-09T14:43:47.112Z,68.40
2022-08-09T14:46:54.647Z,61.10
2022-08-09T14:49:34.628Z,62.10
2022-08-09T14:52:06.866Z,58.30
2022-08-09T14:54:33.979Z,61.50
2022-08-09T14:57:00.461Z,61.80
2022-08-09T14:59:27.448Z,59.10
2022-08-09T15:01:55.319Z,56.00
2022-08-09T15:04:23.586Z,56.60
2022-08-09T15:06:51.356Z,55.60
2022-08-09T15:10:03.314Z,55.90
2022-08-09T15:12:34.999Z,60.20
2022-08-09T15:15:02.373Z,61.20
2022-08-09T15:17:29.133Z,56.40
2022-08-09T15:20:02.342Z,56.30
2022-08-09T15:22:29.346Z,57.60
2022-08-09T15:24:56.337Z,59.80
2022-08-09T15:27:22.737Z,59.40
2022-08-09T15:30:57.625Z,64.00
2022-08-09T15:34:18.191Z,59.70
2022-08-09T15:37:01.145Z,60.40
2022-08-09T15:39:34.424Z,62.00
2022-08-09T15:42:01.723Z,61.80
2022-08-09T15:44:28.841Z,60.00
2022-08-09T15:46:59.996Z,61.70
2022-08-09T15:49:27.268Z,64.80
2022-08-09T15:52:02.728Z,63.00
2022-08-09T15:54:46.100Z,63.50
2022-08-09T15:57:18.995Z,65.40
2022-08-09T16:00:03.634Z,65.40
2022-08-09T16:02:29.921Z,70.30
2022-08-09T16:04:56.220Z,66.20
2022-08-09T16:07:22.500Z,65.40
2022-08-09T16:10:04.131Z,68.50
2022-08-09T16:12:32.399Z,63.80
2022-08-09T16:14:59.425Z,64.50
2022-08-09T16:17:28.988Z,64.50
2022-08-09T16:20:04.517Z,65.40
2022-08-09T16:22:36.534Z,63.50
2022-08-09T16:25:09.921Z,62.70
2022-08-09T16:27:36.889Z,63.20
2022-08-09T16:30:06.334Z,65.00
2022-08-09T16:32:54.274Z,65.70
2022-08-09T16:35:53.012Z,66.90
2022-08-09T16:38:24.293Z,67.20
2022-08-09T16:40:51.775Z,68.00
2022-08-09T16:43:18.429Z,70.70
2022-08-09T16:45:47.309Z,71.30
2022-08-09T16:48:38.162Z,70.30
2022-08-09T16:51:14.202Z,72.10
2022-08-09T16:54:02.525Z,76.00
2022-08-09T16:56:49.071Z,75.80
2022-08-09T16:59:16.071Z,75.20
2022-08-09T17:01:49.063Z,74.40
2022-08-09T17:04:25.567Z,77.40
2022-08-09T17:08:41.483Z,77.10
2022-08-09T17:11:13.578Z,78.50
2022-08-09T17:13:41.639Z,83.30
2022-08-09T17:16:11.676Z,86.50
2022-08-09T17:18:38.700Z,87.60
2022-08-09T17:21:05.206Z,90.20
2022-08-09T17:23:37.027Z,90.40
2022-08-09T17:26:53.398Z,90.30
2022-08-09T17:29:20.951Z,94.10
2022-08-09T17:31:49.296Z,94.30
2022-08-09T17:35:00.962Z,95.10
2022-08-09T17:37:29.675Z,96.80
2022-08-09T17:39:56.389Z,99.50
2022-08-09T17:42:41.777Z,99.90
2022-08-09T17:45:16.220Z,99.90
2022-08-09T17:47:55.847Z,99.90
2022-08-09T17:50:36.827Z,99.90
2022-08-09T17:53:10.414Z,99.90
2022-08-09T17:55:48.801Z,99.90
2022-08-09T17:58:18.414Z,99.90
2022-08-09T18:00:48.097Z,99.90
2022-08-09T18:03:15.385Z,99.90
2022-08-09T18:05:44.658Z,99.90
2022-08-09T18:08:13.282Z,99.90
2022-08-09T18:10:39.711Z,99.90
2022-08-09T18:13:42.911Z,99.90
2022-08-09T18:16:29.122Z,99.90
2022-08-09T18:18:57.437Z,99.90
2022-08-09T18:21:26.011Z,99.90
2022-08-09T18:24:10.375Z,99.90
2022-08-09T18:26:46.665Z,99.90
2022-08-09T18:30:39.810Z,99.90
2022-08-09T18:33:15.710Z,99.90
2022-08-09T18:35:59.126Z,99.90
2022-08-09T18:38:27.008Z,99.90
2022-08-09T18:40:54.793Z,99.90
2022-08-09T18:43:22.251Z,99.90
2022-08-09T18:46:46.177Z,99.90
2022-08-09T18:49:32.110Z,99.90
2022-08-09T18:51:59.686Z,99.90
2022-08-09T18:54:29.871Z,99.90
2022-08-09T18:57:05.429Z,99.90
2022-08-09T18:59:37.459Z,99.90
2022-08-09T19:02:21.157Z,99.90
2022-08-09T19:05:03.442Z,99.90
2022-08-09T19:07:32.340Z,99.90
2022-08-09T19:10:14.781Z,99.90
2022-08-09T19:12:56.087Z,99.90
2022-08-09T19:15:28.128Z,99.90
2022-08-09T19:18:05.460Z,99.90
2022-08-09T19:20:34.450Z,99.90
2022-08-09T19:23:08.155Z,99.90
2022-08-09T19:26:02.280Z,99.90
2022-08-09T19:28:38.140Z,99.90
2022-08-09T19:31:15.131Z,99.90
2022-08-09T19:33:44.118Z,99.90
2022-08-09T19:36:15.442Z,99.90
2022-08-09T19:39:05.841Z,99.90
2022-08-09T19:41:42.872Z,99.90
2022-08-09T19:44:24.665Z,99.90
2022-08-09T19:46:53.358Z,99.90
2022-08-09T19:50:07.374Z,99.90
2022-08-09T19:52:49.661Z,99.90
2022-08-09T19:55:25.846Z,99.90
2022-08-09T19:58:06.294Z,99.90
2022-08-09T20:00:47.629Z,99.90
2022-08-09T20:04:12.665Z,99.90
2022-08-09T20:06:45.669Z,99.90
2022-08-09T20:09:43.659Z,99.90
2022-08-09T20:12:29.822Z,99.90
2022-08-09T20:15:04.654Z,99.90
2022-08-09T20:19:42.966Z,99.90
2022-08-09T20:22:14.901Z,99.90
2022-08-09T20:24:54.122Z,99.90
2022-08-09T20:27:29.374Z,99.90
2022-08-09T20:29:57.884Z,99.90
2022-08-09T20:32:30.186Z,99.90
2022-08-09T20:34:59.904Z,99.90
2022-08-09T20:37:37.920Z,99.90
2022-08-09T20:40:51.316Z,99.90
2022-08-09T20:43:25.315Z,99.90
2022-08-09T20:46:01.507Z,99.90
2022-08-09T20:48:44.478Z,99.90
2022-08-09T20:51:21.811Z,99.90
2022-08-09T20:53:50.534Z,99.90
2022-08-09T20:56:21.862Z,99.90
2022-08-09T20:58:50.693Z,99.90
2022-08-09T21:01:34.400Z,99.90
2022-08-09T21:05:52.733Z,99.90
2022-08-09T21:08:36.523Z,99.90
2022-08-09T21:11:06.466Z,99.90
2022-08-09T21:14:35.800Z,99.90
2022-08-09T21:18:22.256Z,99.90
2022-08-09T21:20:54.630Z,99.90
2022-08-09T21:23:35.985Z,99.90
2022-08-09T21:26:15.532Z,99.90
2022-08-09T21:28:51.845Z,99.90
2022-08-09T21:31:22.634Z,99.90
2022-08-09T21:33:56.689Z,99.90
2022-08-09T21:36:27.929Z,99.90
2022-08-09T21:38:57.925Z,99.90
2022-08-09T21:42:03.931Z,99.90
2022-08-09T21:44:35.309Z,99.90
2022-08-09T21:47:08.611Z,99.90
2022-08-09T21:49:39.656Z,99.90
2022-08-09T21:52:14.437Z,99.90
2022-08-09T21:54:49.523Z,99.90
2022-08-09T21:57:38.174Z,99.90
2022-08-09T22:00:35.662Z,99.90
2022-08-09T22:03:04.706Z,99.90
2022-08-09T22:05:35.681Z,99.90
2022-08-09T22:08:05.682Z,99.90
2022-08-09T22:10:32.087Z,99.90
2022-08-09T22:12:59.690Z,99.90
2022-08-09T22:15:34.984Z,99.90
2022-08-09T22:18:03.701Z,99.90
2022-08-09T22:20:31.460Z,99.90
2022-08-09T22:22:57.978Z,99.90
2022-08-09T22:26:05.462Z,99.90
2022-08-09T22:32:30.246Z,99.90
2022-08-09T22:35:02.618Z,99.90
2022-08-09T22:37:40.101Z,99.90
2022-08-09T22:40:08.628Z,99.90
2022-08-09T22:42:35.058Z,99.90
2022-08-09T22:48:12.786Z,99.90
2022-08-09T22:51:00.518Z,99.90
2022-08-09T22:53:44.218Z,99.90
2022-08-09T22:56:33.050Z,99.90
2022-08-09T22:59:05.862Z,99.90
2022-08-09T23:02:22.725Z,99.90
2022-08-09T23:04:53.710Z,99.90
2022-08-09T23:08:22.073Z,99.90
2022-08-09T23:10:56.407Z,99.90
2022-08-09T23:13:23.015Z,99.90
2022-08-09T23:16:03.079Z,99.90
2022-08-09T23:18:30.476Z,99.90
2022-08-09T23:20:57.017Z,99.90
2022-08-09T23:23:23.361Z,99.90
2022-08-09T23:25:50.059Z,99.90
2022-08-09T23:28:16.435Z,99.90
2022-08-09T23:30:50.827Z,99.90
2022-08-09T23:33:17.858Z,99.90
2022-08-09T23:36:05.945Z,99.90
2022-08-09T23:38:34.181Z,99.90
2022-08-09T23:41:01.258Z,99.90
2022-08-09T23:43:27.982Z,99.90
2022-08-09T23:45:54.433Z,99.90
2022-08-09T23:48:20.692Z,99.90
2022-08-09T23:50:47.000Z,99.90
2022-08-09T23:53:13.280Z,99.90
2022-08-09T23:55:40.528Z,99.90
2022-08-09T23:58:26.136Z,99.90
